sensor_id;sensor_type;location;lat;lon;timestamp;P1;durP1;ratioP1;P2;durP2;ratioP2
10277;SDS011;5184;51.376;7.148;2022-12-05T00:01:21;33.60;;;20.33;;
10277;SDS011;5184;51.376;7.148;2022-12-05T00:03:48;30.80;;;20.33;;
10277;SDS011;5184;51.376;7.148;2022-12-05T00:06:14;30.53;;;18.90;;
10277;SDS011;5184;51.376;7.148;2022-12-05T00:08:41;31.73;;;19.90;;
10277;SDS011;5184;51.376;7.148;2022-12-05T00:11:10;30.43;;;19.73;;
10277;SDS011;5184;51.376;7.148;2022-12-05T00:13:35;31.23;;;19.53;;
10277;SDS011;5184;51.376;7.148;2022-12-05T00:16:05;36.00;;;19.70;;
10277;SDS011;5184;51.376;7.148;2022-12-05T00:18:29;30.10;;;20.20;;
10277;SDS011;5184;51.376;7.148;2022-12-05T00:20:55;32.17;;;20.00;;
10277;SDS011;5184;51.376;7.148;2022-12-05T00:23:22;32.27;;;20.47;;
10277;SDS011;5184;51.376;7.148;2022-12-05T00:25:48;33.73;;;20.37;;
10277;SDS011;5184;51.376;7.148;2022-12-05T00:28:15;30.53;;;19.60;;
10277;SDS011;5184;51.376;7.148;2022-12-05T00:30:42;30.90;;;19.50;;
10277;SDS011;5184;51.376;7.148;2022-12-05T00:33:10;33.63;;;19.37;;
10277;SDS011;5184;51.376;7.148;2022-12-05T00:35:37;31.90;;;20.73;;
10277;SDS011;5184;51.376;7.148;2022-12-05T00:38:05;32.13;;;19.67;;
10277;SDS011;5184;51.376;7.148;2022-12-05T00:40:33;31.30;;;20.13;;
10277;SDS011;5184;51.376;7.148;2022-12-05T00:42:59;30.00;;;18.50;;
10277;SDS011;5184;51.376;7.148;2022-12-05T00:45:27;29.13;;;19.80;;
10277;SDS011;5184;51.376;7.148;2022-12-05T00:47:54;32.93;;;20.60;;
10277;SDS011;5184;51.376;7.148;2022-12-05T00:50:21;29.87;;;19.13;;
10277;SDS011;5184;51.376;7.148;2022-12-05T00:52:47;29.10;;;18.60;;
10277;SDS011;5184;51.376;7.148;2022-12-05T00:55:14;30.67;;;20.03;;
10277;SDS011;5184;51.376;7.148;2022-12-05T00:57:41;30.10;;;19.77;;
10277;SDS011;5184;51.376;7.148;2022-12-05T01:00:09;31.13;;;20.30;;
10277;SDS011;5184;51.376;7.148;2022-12-05T01:02:35;32.13;;;20.07;;
10277;SDS011;5184;51.376;7.148;2022-12-05T01:05:02;29.40;;;18.90;;
10277;SDS011;5184;51.376;7.148;2022-12-05T01:07:29;31.10;;;18.93;;
10277;SDS011;5184;51.376;7.148;2022-12-05T01:09:56;28.73;;;19.17;;
10277;SDS011;5184;51.376;7.148;2022-12-05T01:12:24;29.70;;;19.33;;
10277;SDS011;5184;51.376;7.148;2022-12-05T01:14:50;27.87;;;18.47;;
10277;SDS011;5184;51.376;7.148;2022-12-05T01:17:17;31.70;;;20.13;;
10277;SDS011;5184;51.376;7.148;2022-12-05T01:19:43;29.53;;;18.97;;
10277;SDS011;5184;51.376;7.148;2022-12-05T01:22:10;29.93;;;19.13;;
10277;SDS011;5184;51.376;7.148;2022-12-05T01:24:37;30.37;;;19.10;;
10277;SDS011;5184;51.376;7.148;2022-12-05T01:27:04;26.83;;;17.60;;
10277;SDS011;5184;51.376;7.148;2022-12-05T01:29:31;30.70;;;19.53;;
10277;SDS011;5184;51.376;7.148;2022-12-05T01:31:58;30.40;;;19.13;;
10277;SDS011;5184;51.376;7.148;2022-12-05T01:34:25;29.53;;;18.47;;
10277;SDS011;5184;51.376;7.148;2022-12-05T01:36:52;28.73;;;19.20;;
10277;SDS011;5184;51.376;7.148;2022-12-05T01:39:19;32.43;;;19.97;;
10277;SDS011;5184;51.376;7.148;2022-12-05T01:41:47;31.20;;;19.50;;
10277;SDS011;5184;51.376;7.148;2022-12-05T01:47:10;30.10;;;18.43;;
10277;SDS011;5184;51.376;7.148;2022-12-05T01:49:38;30.13;;;19.43;;
10277;SDS011;5184;51.376;7.148;2022-12-05T01:52:05;31.87;;;20.33;;
10277;SDS011;5184;51.376;7.148;2022-12-05T01:54:31;29.47;;;19.13;;
10277;SDS011;5184;51.376;7.148;2022-12-05T01:57:00;30.60;;;19.67;;
10277;SDS011;5184;51.376;7.148;2022-12-05T01:59:27;29.00;;;19.80;;
10277;SDS011;5184;51.376;7.148;2022-12-05T02:01:53;31.23;;;19.17;;
10277;SDS011;5184;51.376;7.148;2022-12-05T02:04:21;29.23;;;18.93;;
10277;SDS011;5184;51.376;7.148;2022-12-05T02:06:47;29.47;;;19.13;;
10277;SDS011;5184;51.376;7.148;2022-12-05T02:09:14;27.73;;;18.33;;
10277;SDS011;5184;51.376;7.148;2022-12-05T02:11:43;29.37;;;19.77;;
10277;SDS011;5184;51.376;7.148;2022-12-05T02:14:12;28.43;;;19.17;;
10277;SDS011;5184;51.376;7.148;2022-12-05T02:16:46;31.00;;;19.37;;
10277;SDS011;5184;51.376;7.148;2022-12-05T02:24:54;30.03;;;18.60;;
10277;SDS011;5184;51.376;7.148;2022-12-05T02:27:35;32.23;;;19.23;;
10277;SDS011;5184;51.376;7.148;2022-12-05T02:30:05;29.57;;;18.83;;
10277;SDS011;5184;51.376;7.148;2022-12-05T02:32:37;31.20;;;20.23;;
10277;SDS011;5184;51.376;7.148;2022-12-05T02:35:23;28.43;;;18.47;;
10277;SDS011;5184;51.376;7.148;2022-12-05T02:37:58;27.80;;;18.43;;
10277;SDS011;5184;51.376;7.148;2022-12-05T02:40:25;32.30;;;19.30;;
10277;SDS011;5184;51.376;7.148;2022-12-05T02:42:54;34.50;;;19.90;;
10277;SDS011;5184;51.376;7.148;2022-12-05T02:45:24;28.93;;;19.13;;
10277;SDS011;5184;51.376;7.148;2022-12-05T02:47:54;30.23;;;18.67;;
10277;SDS011;5184;51.376;7.148;2022-12-05T02:50:20;29.93;;;19.93;;
10277;SDS011;5184;51.376;7.148;2022-12-05T02:52:47;28.30;;;18.40;;
10277;SDS011;5184;51.376;7.148;2022-12-05T02:55:13;31.23;;;18.27;;
10277;SDS011;5184;51.376;7.148;2022-12-05T02:57:39;27.57;;;18.13;;
10277;SDS011;5184;51.376;7.148;2022-12-05T03:00:06;28.93;;;18.97;;
10277;SDS011;5184;51.376;7.148;2022-12-05T03:02:33;28.10;;;17.97;;
10277;SDS011;5184;51.376;7.148;2022-12-05T03:07:35;28.30;;;18.23;;
10277;SDS011;5184;51.376;7.148;2022-12-05T03:10:03;31.40;;;19.03;;
10277;SDS011;5184;51.376;7.148;2022-12-05T03:12:32;27.30;;;18.80;;
10277;SDS011;5184;51.376;7.148;2022-12-05T03:15:00;31.30;;;18.47;;
10277;SDS011;5184;51.376;7.148;2022-12-05T03:17:29;28.70;;;18.40;;
10277;SDS011;5184;51.376;7.148;2022-12-05T03:19:57;30.93;;;18.30;;
10277;SDS011;5184;51.376;7.148;2022-12-05T03:22:27;28.23;;;18.23;;
10277;SDS011;5184;51.376;7.148;2022-12-05T03:25:05;30.77;;;18.87;;
10277;SDS011;5184;51.376;7.148;2022-12-05T03:27:37;27.57;;;18.63;;
10277;SDS011;5184;51.376;7.148;2022-12-05T03:30:16;30.10;;;18.90;;
10277;SDS011;5184;51.376;7.148;2022-12-05T03:32:47;27.60;;;18.20;;
10277;SDS011;5184;51.376;7.148;2022-12-05T03:35:17;27.73;;;18.33;;
10277;SDS011;5184;51.376;7.148;2022-12-05T03:43:02;29.33;;;17.53;;
10277;SDS011;5184;51.376;7.148;2022-12-05T03:45:37;29.17;;;18.33;;
10277;SDS011;5184;51.376;7.148;2022-12-05T03:48:05;29.37;;;19.57;;
10277;SDS011;5184;51.376;7.148;2022-12-05T03:50:33;26.73;;;19.53;;
10277;SDS011;5184;51.376;7.148;2022-12-05T03:53:01;27.53;;;18.10;;
10277;SDS011;5184;51.376;7.148;2022-12-05T03:55:28;30.00;;;18.07;;
10277;SDS011;5184;51.376;7.148;2022-12-05T03:57:56;30.20;;;18.80;;
10277;SDS011;5184;51.376;7.148;2022-12-05T04:00:23;26.33;;;17.47;;
10277;SDS011;5184;51.376;7.148;2022-12-05T04:02:54;29.23;;;18.73;;
10277;SDS011;5184;51.376;7.148;2022-12-05T04:05:24;27.10;;;18.83;;
10277;SDS011;5184;51.376;7.148;2022-12-05T04:08:02;29.00;;;18.40;;
10277;SDS011;5184;51.376;7.148;2022-12-05T04:10:28;29.37;;;19.07;;
10277;SDS011;5184;51.376;7.148;2022-12-05T04:12:55;29.87;;;19.43;;
10277;SDS011;5184;51.376;7.148;2022-12-05T04:15:25;29.27;;;19.10;;
10277;SDS011;5184;51.376;7.148;2022-12-05T04:17:56;29.17;;;19.07;;
10277;SDS011;5184;51.376;7.148;2022-12-05T04:20:22;28.87;;;18.27;;
10277;SDS011;5184;51.376;7.148;2022-12-05T04:22:57;26.53;;;17.40;;
10277;SDS011;5184;51.376;7.148;2022-12-05T04:25:24;29.53;;;18.77;;
10277;SDS011;5184;51.376;7.148;2022-12-05T04:28:01;33.23;;;19.40;;
10277;SDS011;5184;51.376;7.148;2022-12-05T04:30:25;29.40;;;19.00;;
10277;SDS011;5184;51.376;7.148;2022-12-05T04:35:42;26.20;;;17.73;;
10277;SDS011;5184;51.376;7.148;2022-12-05T04:38:11;29.87;;;18.43;;
10277;SDS011;5184;51.376;7.148;2022-12-05T04:40:40;27.67;;;18.77;;
10277;SDS011;5184;51.376;7.148;2022-12-05T04:43:06;27.27;;;18.10;;
10277;SDS011;5184;51.376;7.148;2022-12-05T04:45:33;25.80;;;17.57;;
10277;SDS011;5184;51.376;7.148;2022-12-05T04:48:02;26.80;;;17.20;;
10277;SDS011;5184;51.376;7.148;2022-12-05T04:50:28;28.77;;;17.87;;
10277;SDS011;5184;51.376;7.148;2022-12-05T04:52:55;26.37;;;17.13;;
10277;SDS011;5184;51.376;7.148;2022-12-05T04:55:23;24.80;;;17.83;;
10277;SDS011;5184;51.376;7.148;2022-12-05T04:58:02;27.13;;;17.43;;
10277;SDS011;5184;51.376;7.148;2022-12-05T05:00:33;25.07;;;17.13;;
10277;SDS011;5184;51.376;7.148;2022-12-05T05:03:05;27.20;;;17.17;;
10277;SDS011;5184;51.376;7.148;2022-12-05T05:05:33;25.30;;;17.40;;
10277;SDS011;5184;51.376;7.148;2022-12-05T05:07:59;28.60;;;17.83;;
10277;SDS011;5184;51.376;7.148;2022-12-05T05:10:44;25.43;;;17.27;;
10277;SDS011;5184;51.376;7.148;2022-12-05T05:13:07;22.77;;;16.53;;
10277;SDS011;5184;51.376;7.148;2022-12-05T05:15:34;24.87;;;16.67;;
10277;SDS011;5184;51.376;7.148;2022-12-05T05:18:01;22.67;;;16.60;;
10277;SDS011;5184;51.376;7.148;2022-12-05T05:20:27;25.40;;;17.23;;
10277;SDS011;5184;51.376;7.148;2022-12-05T05:22:54;25.13;;;16.37;;
10277;SDS011;5184;51.376;7.148;2022-12-05T05:25:20;22.90;;;16.73;;
10277;SDS011;5184;51.376;7.148;2022-12-05T05:27:49;25.43;;;17.37;;
10277;SDS011;5184;51.376;7.148;2022-12-05T05:30:14;28.60;;;18.43;;
10277;SDS011;5184;51.376;7.148;2022-12-05T05:32:41;27.33;;;17.80;;
10277;SDS011;5184;51.376;7.148;2022-12-05T05:35:08;25.97;;;17.67;;
10277;SDS011;5184;51.376;7.148;2022-12-05T05:37:35;25.37;;;17.30;;
10277;SDS011;5184;51.376;7.148;2022-12-05T05:40:02;24.47;;;17.60;;
10277;SDS011;5184;51.376;7.148;2022-12-05T05:42:28;25.97;;;17.00;;
10277;SDS011;5184;51.376;7.148;2022-12-05T05:44:55;24.87;;;16.87;;
10277;SDS011;5184;51.376;7.148;2022-12-05T05:47:21;24.73;;;17.07;;
10277;SDS011;5184;51.376;7.148;2022-12-05T05:49:49;24.30;;;16.70;;
10277;SDS011;5184;51.376;7.148;2022-12-05T05:52:16;24.50;;;17.40;;
10277;SDS011;5184;51.376;7.148;2022-12-05T05:54:43;25.70;;;17.17;;
10277;SDS011;5184;51.376;7.148;2022-12-05T05:57:11;24.63;;;16.70;;
10277;SDS011;5184;51.376;7.148;2022-12-05T05:59:38;25.00;;;17.27;;
10277;SDS011;5184;51.376;7.148;2022-12-05T06:02:06;25.03;;;16.97;;
10277;SDS011;5184;51.376;7.148;2022-12-05T06:04:33;21.10;;;15.30;;
10277;SDS011;5184;51.376;7.148;2022-12-05T06:07:00;23.60;;;15.93;;
10277;SDS011;5184;51.376;7.148;2022-12-05T06:09:28;22.33;;;16.00;;
10277;SDS011;5184;51.376;7.148;2022-12-05T06:11:54;24.13;;;16.77;;
10277;SDS011;5184;51.376;7.148;2022-12-05T06:14:21;22.17;;;15.07;;
10277;SDS011;5184;51.376;7.148;2022-12-05T06:16:47;23.47;;;14.97;;
10277;SDS011;5184;51.376;7.148;2022-12-05T06:19:14;20.43;;;15.13;;
10277;SDS011;5184;51.376;7.148;2022-12-05T06:21:41;21.33;;;14.50;;
10277;SDS011;5184;51.376;7.148;2022-12-05T06:24:08;23.60;;;15.90;;
10277;SDS011;5184;51.376;7.148;2022-12-05T06:26:35;23.07;;;15.73;;
10277;SDS011;5184;51.376;7.148;2022-12-05T06:29:03;23.33;;;16.23;;
10277;SDS011;5184;51.376;7.148;2022-12-05T06:31:30;21.27;;;15.87;;
10277;SDS011;5184;51.376;7.148;2022-12-05T06:33:59;23.57;;;15.77;;
10277;SDS011;5184;51.376;7.148;2022-12-05T06:36:26;22.60;;;15.90;;
10277;SDS011;5184;51.376;7.148;2022-12-05T06:38:52;21.70;;;15.23;;
10277;SDS011;5184;51.376;7.148;2022-12-05T06:41:19;24.83;;;15.63;;
10277;SDS011;5184;51.376;7.148;2022-12-05T06:43:46;22.03;;;15.10;;
10277;SDS011;5184;51.376;7.148;2022-12-05T06:46:13;23.40;;;15.63;;
10277;SDS011;5184;51.376;7.148;2022-12-05T06:48:41;19.43;;;14.17;;
10277;SDS011;5184;51.376;7.148;2022-12-05T06:51:09;21.47;;;14.30;;
10277;SDS011;5184;51.376;7.148;2022-12-05T06:53:35;21.27;;;15.07;;
10277;SDS011;5184;51.376;7.148;2022-12-05T06:56:03;19.57;;;14.10;;
10277;SDS011;5184;51.376;7.148;2022-12-05T06:58:29;24.47;;;16.17;;
10277;SDS011;5184;51.376;7.148;2022-12-05T07:00:55;20.17;;;14.43;;
10277;SDS011;5184;51.376;7.148;2022-12-05T07:03:28;19.97;;;14.27;;
10277;SDS011;5184;51.376;7.148;2022-12-05T07:05:54;23.23;;;14.90;;
10277;SDS011;5184;51.376;7.148;2022-12-05T07:08:22;18.33;;;14.30;;
10277;SDS011;5184;51.376;7.148;2022-12-05T07:10:49;21.77;;;15.03;;
10277;SDS011;5184;51.376;7.148;2022-12-05T07:13:16;19.03;;;14.33;;
10277;SDS011;5184;51.376;7.148;2022-12-05T07:15:44;20.40;;;14.50;;
10277;SDS011;5184;51.376;7.148;2022-12-05T07:18:13;18.73;;;14.10;;
10277;SDS011;5184;51.376;7.148;2022-12-05T07:20:40;18.43;;;14.30;;
10277;SDS011;5184;51.376;7.148;2022-12-05T07:23:06;17.80;;;13.90;;
10277;SDS011;5184;51.376;7.148;2022-12-05T07:25:33;20.60;;;14.07;;
10277;SDS011;5184;51.376;7.148;2022-12-05T07:27:59;20.97;;;14.73;;
10277;SDS011;5184;51.376;7.148;2022-12-05T07:30:26;19.53;;;13.47;;
10277;SDS011;5184;51.376;7.148;2022-12-05T07:32:52;21.70;;;14.53;;
10277;SDS011;5184;51.376;7.148;2022-12-05T07:35:19;20.50;;;14.20;;
10277;SDS011;5184;51.376;7.148;2022-12-05T07:37:46;18.43;;;13.60;;
10277;SDS011;5184;51.376;7.148;2022-12-05T07:40:14;17.33;;;13.77;;
10277;SDS011;5184;51.376;7.148;2022-12-05T07:42:41;17.47;;;12.80;;
10277;SDS011;5184;51.376;7.148;2022-12-05T07:45:09;18.90;;;14.30;;
10277;SDS011;5184;51.376;7.148;2022-12-05T07:47:35;21.13;;;13.63;;
10277;SDS011;5184;51.376;7.148;2022-12-05T07:50:03;19.10;;;13.70;;
10277;SDS011;5184;51.376;7.148;2022-12-05T07:52:30;19.67;;;14.23;;
10277;SDS011;5184;51.376;7.148;2022-12-05T07:54:58;22.17;;;15.53;;
10277;SDS011;5184;51.376;7.148;2022-12-05T07:57:27;19.33;;;14.23;;
10277;SDS011;5184;51.376;7.148;2022-12-05T07:59:52;17.50;;;13.47;;
10277;SDS011;5184;51.376;7.148;2022-12-05T08:02:18;22.10;;;15.17;;
10277;SDS011;5184;51.376;7.148;2022-12-05T08:04:45;20.77;;;14.47;;
10277;SDS011;5184;51.376;7.148;2022-12-05T08:07:12;20.83;;;14.53;;
10277;SDS011;5184;51.376;7.148;2022-12-05T08:09:38;20.27;;;14.30;;
10277;SDS011;5184;51.376;7.148;2022-12-05T08:12:05;19.43;;;13.77;;
10277;SDS011;5184;51.376;7.148;2022-12-05T08:14:31;20.00;;;13.83;;
10277;SDS011;5184;51.376;7.148;2022-12-05T08:16:58;20.77;;;14.77;;
10277;SDS011;5184;51.376;7.148;2022-12-05T08:19:25;18.90;;;13.80;;
10277;SDS011;5184;51.376;7.148;2022-12-05T08:21:53;18.03;;;13.33;;
10277;SDS011;5184;51.376;7.148;2022-12-05T08:24:18;18.53;;;14.43;;
10277;SDS011;5184;51.376;7.148;2022-12-05T08:26:44;17.70;;;14.07;;
10277;SDS011;5184;51.376;7.148;2022-12-05T08:29:13;18.33;;;14.00;;
10277;SDS011;5184;51.376;7.148;2022-12-05T08:31:43;18.30;;;14.10;;
10277;SDS011;5184;51.376;7.148;2022-12-05T08:34:08;19.63;;;13.70;;
10277;SDS011;5184;51.376;7.148;2022-12-05T08:36:35;19.90;;;13.97;;
10277;SDS011;5184;51.376;7.148;2022-12-05T08:39:03;19.33;;;13.90;;
10277;SDS011;5184;51.376;7.148;2022-12-05T08:41:29;17.87;;;14.20;;
10277;SDS011;5184;51.376;7.148;2022-12-05T08:43:56;17.87;;;13.87;;
10277;SDS011;5184;51.376;7.148;2022-12-05T08:46:22;18.87;;;14.47;;
10277;SDS011;5184;51.376;7.148;2022-12-05T08:48:49;19.33;;;14.63;;
10277;SDS011;5184;51.376;7.148;2022-12-05T08:51:15;21.47;;;15.27;;
10277;SDS011;5184;51.376;7.148;2022-12-05T08:53:42;18.13;;;13.27;;
10277;SDS011;5184;51.376;7.148;2022-12-05T08:56:09;17.33;;;13.73;;
10277;SDS011;5184;51.376;7.148;2022-12-05T08:58:35;18.73;;;14.40;;
10277;SDS011;5184;51.376;7.148;2022-12-05T09:01:04;18.83;;;14.40;;
10277;SDS011;5184;51.376;7.148;2022-12-05T09:03:31;19.53;;;14.13;;
10277;SDS011;5184;51.376;7.148;2022-12-05T09:06:04;18.83;;;13.97;;
10277;SDS011;5184;51.376;7.148;2022-12-05T09:08:31;19.57;;;14.10;;
10277;SDS011;5184;51.376;7.148;2022-12-05T09:10:57;18.17;;;12.93;;
10277;SDS011;5184;51.376;7.148;2022-12-05T09:13:24;18.97;;;14.70;;
10277;SDS011;5184;51.376;7.148;2022-12-05T09:15:50;17.80;;;13.50;;
10277;SDS011;5184;51.376;7.148;2022-12-05T09:18:18;18.77;;;14.23;;
10277;SDS011;5184;51.376;7.148;2022-12-05T09:20:45;18.50;;;13.47;;
10277;SDS011;5184;51.376;7.148;2022-12-05T09:23:13;19.00;;;13.77;;
10277;SDS011;5184;51.376;7.148;2022-12-05T09:25:40;18.00;;;13.70;;
10277;SDS011;5184;51.376;7.148;2022-12-05T09:28:06;16.67;;;14.30;;
10277;SDS011;5184;51.376;7.148;2022-12-05T09:30:33;15.37;;;12.83;;
10277;SDS011;5184;51.376;7.148;2022-12-05T09:33:00;16.30;;;13.47;;
10277;SDS011;5184;51.376;7.148;2022-12-05T09:35:26;17.53;;;13.93;;
10277;SDS011;5184;51.376;7.148;2022-12-05T09:37:53;15.57;;;13.30;;
10277;SDS011;5184;51.376;7.148;2022-12-05T09:40:20;15.03;;;12.73;;
10277;SDS011;5184;51.376;7.148;2022-12-05T09:42:52;17.10;;;13.37;;
10277;SDS011;5184;51.376;7.148;2022-12-05T09:45:24;16.13;;;13.40;;
10277;SDS011;5184;51.376;7.148;2022-12-05T09:47:53;14.57;;;12.57;;
10277;SDS011;5184;51.376;7.148;2022-12-05T09:50:23;14.60;;;12.47;;
10277;SDS011;5184;51.376;7.148;2022-12-05T09:52:58;16.00;;;13.10;;
10277;SDS011;5184;51.376;7.148;2022-12-05T09:55:28;14.90;;;12.13;;
10277;SDS011;5184;51.376;7.148;2022-12-05T09:57:55;15.10;;;12.70;;
10277;SDS011;5184;51.376;7.148;2022-12-05T10:00:20;15.27;;;11.50;;
10277;SDS011;5184;51.376;7.148;2022-12-05T10:02:49;13.70;;;12.13;;
10277;SDS011;5184;51.376;7.148;2022-12-05T10:05:15;15.90;;;13.27;;
10277;SDS011;5184;51.376;7.148;2022-12-05T10:07:59;15.13;;;12.00;;
10277;SDS011;5184;51.376;7.148;2022-12-05T10:10:31;14.03;;;11.60;;
10277;SDS011;5184;51.376;7.148;2022-12-05T10:13:12;13.97;;;11.43;;
10277;SDS011;5184;51.376;7.148;2022-12-05T10:15:41;13.83;;;11.80;;
10277;SDS011;5184;51.376;7.148;2022-12-05T10:18:12;13.03;;;11.10;;
10277;SDS011;5184;51.376;7.148;2022-12-05T10:20:47;14.30;;;10.87;;
10277;SDS011;5184;51.376;7.148;2022-12-05T10:23:17;14.33;;;11.47;;
10277;SDS011;5184;51.376;7.148;2022-12-05T10:25:43;13.33;;;10.90;;
10277;SDS011;5184;51.376;7.148;2022-12-05T10:28:13;12.57;;;11.03;;
10277;SDS011;5184;51.376;7.148;2022-12-05T10:30:37;12.33;;;10.50;;
10277;SDS011;5184;51.376;7.148;2022-12-05T10:33:10;11.47;;;9.53;;
10277;SDS011;5184;51.376;7.148;2022-12-05T10:35:39;12.93;;;10.23;;
10277;SDS011;5184;51.376;7.148;2022-12-05T10:38:08;12.93;;;10.43;;
10277;SDS011;5184;51.376;7.148;2022-12-05T10:40:37;12.17;;;10.03;;
10277;SDS011;5184;51.376;7.148;2022-12-05T10:43:06;11.23;;;9.67;;
10277;SDS011;5184;51.376;7.148;2022-12-05T10:45:32;11.33;;;10.10;;
10277;SDS011;5184;51.376;7.148;2022-12-05T10:47:59;11.67;;;10.40;;
10277;SDS011;5184;51.376;7.148;2022-12-05T10:50:28;10.93;;;9.83;;
10277;SDS011;5184;51.376;7.148;2022-12-05T10:52:54;13.23;;;10.37;;
10277;SDS011;5184;51.376;7.148;2022-12-05T10:55:21;11.77;;;10.60;;
10277;SDS011;5184;51.376;7.148;2022-12-05T10:57:50;12.70;;;10.73;;
10277;SDS011;5184;51.376;7.148;2022-12-05T11:00:15;11.03;;;9.93;;
10277;SDS011;5184;51.376;7.148;2022-12-05T11:02:42;10.93;;;9.43;;
10277;SDS011;5184;51.376;7.148;2022-12-05T11:05:09;9.80;;;8.60;;
10277;SDS011;5184;51.376;7.148;2022-12-05T11:07:44;10.40;;;9.07;;
10277;SDS011;5184;51.376;7.148;2022-12-05T11:12:47;9.20;;;8.30;;
10277;SDS011;5184;51.376;7.148;2022-12-05T11:15:22;10.23;;;9.10;;
10277;SDS011;5184;51.376;7.148;2022-12-05T11:17:51;9.80;;;8.80;;
10277;SDS011;5184;51.376;7.148;2022-12-05T11:20:34;10.03;;;9.03;;
10277;SDS011;5184;51.376;7.148;2022-12-05T11:22:59;10.53;;;9.30;;
10277;SDS011;5184;51.376;7.148;2022-12-05T11:25:28;10.00;;;8.53;;
10277;SDS011;5184;51.376;7.148;2022-12-05T11:27:55;10.00;;;9.00;;
10277;SDS011;5184;51.376;7.148;2022-12-05T11:30:23;11.20;;;10.10;;
10277;SDS011;5184;51.376;7.148;2022-12-05T11:32:49;12.50;;;11.20;;
10277;SDS011;5184;51.376;7.148;2022-12-05T11:35:21;12.47;;;9.97;;
10277;SDS011;5184;51.376;7.148;2022-12-05T11:37:52;11.60;;;10.40;;
10277;SDS011;5184;51.376;7.148;2022-12-05T11:40:24;11.73;;;10.37;;
10277;SDS011;5184;51.376;7.148;2022-12-05T11:45:33;13.63;;;12.17;;
10277;SDS011;5184;51.376;7.148;2022-12-05T11:48:16;13.10;;;11.70;;
10277;SDS011;5184;51.376;7.148;2022-12-05T11:50:44;14.53;;;12.73;;
10277;SDS011;5184;51.376;7.148;2022-12-05T11:53:28;15.07;;;13.40;;
10277;SDS011;5184;51.376;7.148;2022-12-05T11:55:58;15.07;;;13.17;;
10277;SDS011;5184;51.376;7.148;2022-12-05T11:58:43;18.80;;;13.80;;
10277;SDS011;5184;51.376;7.148;2022-12-05T12:01:10;13.93;;;12.43;;
10277;SDS011;5184;51.376;7.148;2022-12-05T12:03:42;13.00;;;11.60;;
10277;SDS011;5184;51.376;7.148;2022-12-05T12:07:21;15.20;;;12.33;;
10277;SDS011;5184;51.376;7.148;2022-12-05T12:09:13;12.87;;;11.40;;
10277;SDS011;5184;51.376;7.148;2022-12-05T12:11:41;12.00;;;10.70;;
10277;SDS011;5184;51.376;7.148;2022-12-05T12:14:13;11.53;;;10.33;;
10277;SDS011;5184;51.376;7.148;2022-12-05T12:17:02;11.80;;;10.60;;
10277;SDS011;5184;51.376;7.148;2022-12-05T12:19:37;11.60;;;10.43;;
10277;SDS011;5184;51.376;7.148;2022-12-05T12:22:09;12.87;;;11.20;;
10277;SDS011;5184;51.376;7.148;2022-12-05T12:24:44;12.53;;;10.90;;
10277;SDS011;5184;51.376;7.148;2022-12-05T12:27:27;12.63;;;11.33;;
10277;SDS011;5184;51.376;7.148;2022-12-05T12:30:14;11.53;;;10.33;;
10277;SDS011;5184;51.376;7.148;2022-12-05T12:32:43;12.27;;;10.93;;
10277;SDS011;5184;51.376;7.148;2022-12-05T12:35:22;12.97;;;10.73;;
10277;SDS011;5184;51.376;7.148;2022-12-05T12:40:38;11.40;;;10.20;;
10277;SDS011;5184;51.376;7.148;2022-12-05T12:43:23;10.70;;;9.57;;
10277;SDS011;5184;51.376;7.148;2022-12-05T12:46:03;11.67;;;10.47;;
10277;SDS011;5184;51.376;7.148;2022-12-05T12:48:33;12.60;;;10.40;;
10277;SDS011;5184;51.376;7.148;2022-12-05T12:51:01;11.93;;;10.23;;
10277;SDS011;5184;51.376;7.148;2022-12-05T12:53:40;10.83;;;9.73;;
10277;SDS011;5184;51.376;7.148;2022-12-05T12:56:26;15.20;;;12.73;;
10277;SDS011;5184;51.376;7.148;2022-12-05T13:01:32;16.20;;;13.40;;
10277;SDS011;5184;51.376;7.148;2022-12-05T13:03:59;14.97;;;11.70;;
10277;SDS011;5184;51.376;7.148;2022-12-05T13:06:27;13.67;;;11.97;;
10277;SDS011;5184;51.376;7.148;2022-12-05T13:08:55;13.50;;;11.70;;
10277;SDS011;5184;51.376;7.148;2022-12-05T13:11:21;13.00;;;11.50;;
10277;SDS011;5184;51.376;7.148;2022-12-05T13:13:49;13.80;;;12.23;;
10277;SDS011;5184;51.376;7.148;2022-12-05T13:16:20;14.03;;;11.80;;
10277;SDS011;5184;51.376;7.148;2022-12-05T13:18:44;12.37;;;11.00;;
10277;SDS011;5184;51.376;7.148;2022-12-05T13:21:12;12.37;;;10.73;;
10277;SDS011;5184;51.376;7.148;2022-12-05T13:23:40;11.70;;;10.43;;
10277;SDS011;5184;51.376;7.148;2022-12-05T13:26:07;11.27;;;10.07;;
10277;SDS011;5184;51.376;7.148;2022-12-05T13:29:13;13.00;;;11.60;;
10277;SDS011;5184;51.376;7.148;2022-12-05T13:31:16;21.53;;;16.87;;
10277;SDS011;5184;51.376;7.148;2022-12-05T13:33:43;18.50;;;15.63;;
10277;SDS011;5184;51.376;7.148;2022-12-05T13:36:10;18.03;;;15.73;;
10277;SDS011;5184;51.376;7.148;2022-12-05T13:38:43;20.60;;;17.50;;
10277;SDS011;5184;51.376;7.148;2022-12-05T13:41:15;19.60;;;17.37;;
10277;SDS011;5184;51.376;7.148;2022-12-05T13:43:49;19.23;;;16.63;;
10277;SDS011;5184;51.376;7.148;2022-12-05T13:46:18;17.90;;;15.03;;
10277;SDS011;5184;51.376;7.148;2022-12-05T13:48:45;22.60;;;16.37;;
10277;SDS011;5184;51.376;7.148;2022-12-05T13:51:12;16.13;;;14.10;;
10277;SDS011;5184;51.376;7.148;2022-12-05T13:53:39;14.93;;;12.93;;
10277;SDS011;5184;51.376;7.148;2022-12-05T13:56:23;19.07;;;15.03;;
10277;SDS011;5184;51.376;7.148;2022-12-05T13:58:48;24.57;;;19.03;;
10277;SDS011;5184;51.376;7.148;2022-12-05T14:04:16;30.53;;;22.17;;
10277;SDS011;5184;51.376;7.148;2022-12-05T14:09:27;19.07;;;15.43;;
10277;SDS011;5184;51.376;7.148;2022-12-05T14:15:02;10.97;;;9.83;;
10277;SDS011;5184;51.376;7.148;2022-12-05T14:17:18;13.13;;;11.20;;
10277;SDS011;5184;51.376;7.148;2022-12-05T14:19:49;15.23;;;12.30;;
10277;SDS011;5184;51.376;7.148;2022-12-05T14:22:16;13.53;;;12.07;;
10277;SDS011;5184;51.376;7.148;2022-12-05T14:24:45;16.57;;;13.60;;
10277;SDS011;5184;51.376;7.148;2022-12-05T14:27:13;18.80;;;14.73;;
10277;SDS011;5184;51.376;7.148;2022-12-05T14:29:51;13.63;;;12.23;;
10277;SDS011;5184;51.376;7.148;2022-12-05T14:32:21;17.70;;;13.73;;
10277;SDS011;5184;51.376;7.148;2022-12-05T14:34:55;14.50;;;13.00;;
10277;SDS011;5184;51.376;7.148;2022-12-05T14:37:36;17.43;;;14.27;;
10277;SDS011;5184;51.376;7.148;2022-12-05T14:42:49;21.20;;;17.10;;
10277;SDS011;5184;51.376;7.148;2022-12-05T14:47:51;21.03;;;16.10;;
10277;SDS011;5184;51.376;7.148;2022-12-05T14:55:54;11.83;;;10.63;;
10277;SDS011;5184;51.376;7.148;2022-12-05T15:00:55;9.93;;;8.93;;
10277;SDS011;5184;51.376;7.148;2022-12-05T15:03:23;10.07;;;9.00;;
10277;SDS011;5184;51.376;7.148;2022-12-05T15:05:48;9.77;;;8.77;;
10277;SDS011;5184;51.376;7.148;2022-12-05T15:08:15;9.87;;;8.87;;
10277;SDS011;5184;51.376;7.148;2022-12-05T15:10:41;9.70;;;8.70;;
10277;SDS011;5184;51.376;7.148;2022-12-05T15:13:10;11.10;;;9.90;;
10277;SDS011;5184;51.376;7.148;2022-12-05T15:15:42;10.10;;;8.70;;
10277;SDS011;5184;51.376;7.148;2022-12-05T15:20:57;12.40;;;11.10;;
10277;SDS011;5184;51.376;7.148;2022-12-05T15:26:15;14.47;;;12.63;;
10277;SDS011;5184;51.376;7.148;2022-12-05T15:28:59;14.40;;;12.87;;
10277;SDS011;5184;51.376;7.148;2022-12-05T15:31:44;15.87;;;13.87;;
10277;SDS011;5184;51.376;7.148;2022-12-05T15:34:13;15.43;;;13.80;;
10277;SDS011;5184;51.376;7.148;2022-12-05T15:36:42;17.40;;;14.57;;
10277;SDS011;5184;51.376;7.148;2022-12-05T15:39:16;17.90;;;14.13;;
10277;SDS011;5184;51.376;7.148;2022-12-05T15:41:49;16.00;;;13.53;;
10277;SDS011;5184;51.376;7.148;2022-12-05T15:44:15;15.67;;;13.23;;